createdAt,value
2022-10-11T00:02:20.072Z,7.87
2022-10-11T00:04:47.546Z,7.67
2022-10-11T00:07:15.701Z,7.43
2022-10-11T00:09:43.333Z,7.37
2022-10-11T00:12:11.112Z,7.13
2022-10-11T00:14:38.790Z,7.33
2022-10-11T00:17:06.582Z,7.17
2022-10-11T00:19:34.524Z,7.20
2022-10-11T00:22:02.314Z,8.10
2022-10-11T00:24:29.742Z,7.63
2022-10-11T00:26:57.227Z,7.93
2022-10-11T00:29:24.694Z,7.63
2022-10-11T00:31:52.166Z,7.23
2022-10-11T00:34:19.635Z,6.80
2022-10-11T00:36:47.171Z,7.53
2022-10-11T00:39:15.698Z,7.87
2022-10-11T00:41:43.179Z,7.73
2022-10-11T00:44:13.786Z,7.67
2022-10-11T00:46:43.152Z,7.97
2022-10-11T00:49:15.781Z,7.10
2022-10-11T00:52:04.169Z,7.93
2022-10-11T00:54:33.947Z,9.10
2022-10-11T00:57:04.802Z,8.87
2022-10-11T00:59:35.535Z,8.93
2022-10-11T01:02:03.433Z,7.60
2022-10-11T01:04:30.859Z,8.07
2022-10-11T01:06:58.440Z,7.73
2022-10-11T01:09:26.846Z,8.07
2022-10-11T01:11:57.979Z,7.37
2022-10-11T01:14:25.465Z,6.87
2022-10-11T01:16:52.887Z,7.93
2022-10-11T01:19:39.262Z,7.83
2022-10-11T01:22:22.056Z,7.10
2022-10-11T01:25:07.884Z,7.00
2022-10-11T01:27:40.272Z,8.37
2022-10-11T01:30:26.602Z,7.60
2022-10-11T01:32:56.843Z,7.87
2022-10-11T01:35:29.087Z,7.80
2022-10-11T01:38:00.632Z,7.27
2022-10-11T01:40:32.052Z,7.90
2022-10-11T01:43:00.510Z,7.00
2022-10-11T01:45:28.112Z,7.83
2022-10-11T01:48:06.776Z,7.63
2022-10-11T01:50:36.662Z,7.07
2022-10-11T01:53:13.216Z,6.93
2022-10-11T01:55:47.890Z,6.40
2022-10-11T01:58:18.129Z,6.87
2022-10-11T02:00:51.732Z,6.87
2022-10-11T02:03:45.047Z,8.17
2022-10-11T02:06:17.380Z,6.87
2022-10-11T02:08:54.758Z,7.27
2022-10-11T02:11:26.635Z,6.60
2022-10-11T02:14:12.709Z,6.83
2022-10-11T02:16:43.470Z,6.23
2022-10-11T02:19:13.166Z,5.83
2022-10-11T02:21:42.281Z,5.50
2022-10-11T02:24:22.522Z,5.10
2022-10-11T02:26:52.516Z,5.03
2022-10-11T02:29:20.649Z,6.03
2022-10-11T02:31:49.131Z,5.97
2022-10-11T02:34:21.811Z,6.47
2022-10-11T02:37:08.211Z,5.40
2022-10-11T02:39:43.908Z,6.87
2022-10-11T02:42:14.735Z,7.03
2022-10-11T02:44:44.857Z,5.80
2022-10-11T02:47:12.631Z,7.20
2022-10-11T02:49:40.239Z,5.90
2022-10-11T02:52:07.716Z,5.57
2022-10-11T02:54:35.287Z,5.53
2022-10-11T02:57:02.748Z,5.93
2022-10-11T02:59:30.206Z,5.97
2022-10-11T03:01:57.774Z,6.20
2022-10-11T03:04:25.211Z,5.63
2022-10-11T03:06:52.707Z,5.43
2022-10-11T03:09:20.219Z,4.90
2022-10-11T03:11:47.727Z,5.67
2022-10-11T03:14:15.229Z,5.73
2022-10-11T03:16:42.716Z,6.23
2022-10-11T03:19:10.182Z,7.30
2022-10-11T03:21:37.735Z,6.27
2022-10-11T03:24:05.303Z,5.57
2022-10-11T03:26:33.116Z,5.40
2022-10-11T03:29:00.622Z,5.73
2022-10-11T03:31:28.147Z,5.67
2022-10-11T03:33:55.567Z,4.97
2022-10-11T03:36:23.089Z,5.53
2022-10-11T03:38:50.523Z,5.53
2022-10-11T03:41:18.100Z,6.70
2022-10-11T03:43:45.581Z,5.33
2022-10-11T03:46:13.255Z,5.73
2022-10-11T03:48:40.666Z,5.63
2022-10-11T03:51:08.175Z,4.90
2022-10-11T03:53:35.660Z,4.47
2022-10-11T03:56:08.058Z,5.00
2022-10-11T03:58:48.198Z,4.00
2022-10-11T04:01:15.916Z,4.40
2022-10-11T04:03:43.434Z,5.27
2022-10-11T04:06:10.905Z,5.47
2022-10-11T04:08:38.383Z,5.30
2022-10-11T04:11:05.894Z,6.70
2022-10-11T04:13:33.431Z,5.47
2022-10-11T04:16:01.139Z,5.70
2022-10-11T04:18:28.698Z,6.17
2022-10-11T04:20:56.219Z,7.47
2022-10-11T04:23:23.682Z,5.80
2022-10-11T04:25:51.284Z,4.77
2022-10-11T04:28:18.923Z,4.63
2022-10-11T04:30:46.484Z,4.93
2022-10-11T04:33:13.941Z,4.30
2022-10-11T04:35:41.569Z,4.87
2022-10-11T04:38:09.053Z,4.40
2022-10-11T04:40:36.567Z,4.37
2022-10-11T04:43:04.056Z,5.60
2022-10-11T04:45:31.557Z,5.27
2022-10-11T04:47:59.048Z,4.43
2022-10-11T04:50:26.539Z,5.63
2022-10-11T04:52:54.046Z,4.57
2022-10-11T04:55:22.331Z,5.57
2022-10-11T04:57:49.759Z,4.63
2022-10-11T05:00:17.362Z,4.37
2022-10-11T05:02:44.815Z,4.20
2022-10-11T05:05:12.264Z,4.30
2022-10-11T05:07:39.768Z,5.57
2022-10-11T05:10:07.599Z,6.23
2022-10-11T05:12:35.157Z,5.67
2022-10-11T05:15:02.767Z,6.40
2022-10-11T05:17:30.347Z,7.37
2022-10-11T05:19:57.867Z,6.07
2022-10-11T05:22:25.366Z,5.53
2022-10-11T05:24:52.834Z,5.43
2022-10-11T05:27:20.476Z,7.40
2022-10-11T05:29:49.139Z,6.73
2022-10-11T05:32:16.641Z,7.03
2022-10-11T05:34:53.252Z,5.93
2022-10-11T05:37:21.116Z,6.30
2022-10-11T05:39:48.731Z,6.37
2022-10-11T05:42:16.198Z,6.10
2022-10-11T05:44:43.720Z,6.00
2022-10-11T05:47:11.298Z,9.97
2022-10-11T05:49:38.823Z,9.47
2022-10-11T05:52:06.358Z,8.67
2022-10-11T05:54:34.024Z,8.10
2022-10-11T05:57:01.709Z,8.40
2022-10-11T05:59:29.217Z,7.60
2022-10-11T06:01:56.840Z,7.73
2022-10-11T06:04:24.338Z,8.33
2022-10-11T06:06:51.845Z,8.00
2022-10-11T06:09:19.335Z,8.97
2022-10-11T06:11:46.856Z,7.47
2022-10-11T06:14:17.151Z,11.27
2022-10-11T06:16:44.633Z,10.27
2022-10-11T06:19:12.122Z,10.23
2022-10-11T06:21:39.668Z,8.97
2022-10-11T06:24:07.515Z,8.53
2022-10-11T06:26:35.078Z,7.97
2022-10-11T06:29:02.659Z,9.13
2022-10-11T06:31:30.220Z,7.77
2022-10-11T06:33:59.520Z,9.93
2022-10-11T06:36:27.428Z,8.20
2022-10-11T06:38:55.857Z,6.87
2022-10-11T06:41:24.861Z,8.20
2022-10-11T06:43:52.632Z,7.73
2022-10-11T06:46:21.525Z,8.27
2022-10-11T06:48:49.375Z,9.20
2022-10-11T06:51:18.147Z,8.23
2022-10-11T06:53:49.531Z,7.50
2022-10-11T06:56:17.047Z,7.93
2022-10-11T06:58:44.679Z,6.60
2022-10-11T07:01:15.812Z,6.40
2022-10-11T07:03:43.507Z,6.20
2022-10-11T07:06:12.104Z,6.03
2022-10-11T07:08:39.960Z,5.87
2022-10-11T07:11:08.835Z,5.40
2022-10-11T07:13:37.141Z,6.00
2022-10-11T07:16:05.523Z,6.23
2022-10-11T07:18:33.333Z,5.50
2022-10-11T07:21:05.023Z,6.53
2022-10-11T07:23:32.530Z,7.30
2022-10-11T07:26:00.016Z,6.50
2022-10-11T07:28:28.023Z,7.10
2022-10-11T07:31:05.354Z,6.80
2022-10-11T07:33:33.000Z,6.90
2022-10-11T07:36:00.596Z,7.13
2022-10-11T07:38:28.227Z,7.97
2022-10-11T07:40:55.845Z,8.87
2022-10-11T07:43:23.384Z,9.07
2022-10-11T07:45:52.117Z,7.30
2022-10-11T07:48:19.632Z,7.97
2022-10-11T07:50:47.212Z,7.43
2022-10-11T07:53:14.834Z,7.17
2022-10-11T07:55:42.290Z,7.80
2022-10-11T07:58:13.406Z,7.07
2022-10-11T08:00:40.900Z,7.50
2022-10-11T08:03:08.446Z,7.40
2022-10-11T08:05:37.714Z,8.10
2022-10-11T08:08:05.860Z,7.60
2022-10-11T08:10:37.590Z,8.30
2022-10-11T08:13:05.654Z,8.07
2022-10-11T08:15:33.140Z,8.33
2022-10-11T08:18:00.711Z,9.20
2022-10-11T08:20:28.310Z,10.47
2022-10-11T08:22:55.911Z,8.70
2022-10-11T08:25:23.399Z,9.40
2022-10-11T08:27:50.964Z,11.20
2022-10-11T08:30:18.520Z,12.37
2022-10-11T08:32:46.083Z,12.50
2022-10-11T08:35:16.645Z,14.87
2022-10-11T08:37:44.171Z,14.87
2022-10-11T08:40:15.439Z,14.23
2022-10-11T08:43:06.301Z,14.47
2022-10-11T08:45:39.427Z,12.10
2022-10-11T08:48:29.965Z,11.97
2022-10-11T08:50:57.946Z,10.60
2022-10-11T08:53:44.427Z,10.33
2022-10-11T08:56:13.595Z,9.20
2022-10-11T08:58:44.745Z,10.03
2022-10-11T09:01:31.609Z,10.73
2022-10-11T09:03:59.374Z,9.70
2022-10-11T09:06:40.640Z,11.23
2022-10-11T09:09:27.046Z,10.63
2022-10-11T09:11:59.929Z,10.00
2022-10-11T09:14:27.450Z,9.63
2022-10-11T09:16:57.966Z,10.23
2022-10-11T09:19:28.597Z,10.37
2022-10-11T09:22:14.407Z,10.83
2022-10-11T09:25:05.100Z,13.33
2022-10-11T09:28:00.719Z,12.53
2022-10-11T09:30:26.335Z,15.63
2022-10-11T09:32:59.756Z,15.20
2022-10-11T09:35:29.094Z,15.97
2022-10-11T09:38:00.050Z,17.73
2022-10-11T09:40:30.649Z,20.43
2022-10-11T09:42:58.134Z,19.77
2022-10-11T09:45:26.189Z,18.60
2022-10-11T09:47:56.212Z,18.60
2022-10-11T09:50:24.696Z,17.70
2022-10-11T09:52:56.383Z,15.20
2022-10-11T09:55:31.917Z,16.43
2022-10-11T09:57:59.604Z,16.27
2022-10-11T10:00:28.077Z,18.00
2022-10-11T10:02:57.423Z,17.83
2022-10-11T10:05:24.926Z,17.50
2022-10-11T10:08:04.337Z,15.83
2022-10-11T10:10:48.855Z,18.40
2022-10-11T10:13:21.439Z,18.67
2022-10-11T10:15:50.941Z,16.23
2022-10-11T10:18:23.773Z,17.50
2022-10-11T10:20:52.356Z,17.93
2022-10-11T10:23:22.268Z,16.40
2022-10-11T10:25:50.181Z,16.17
2022-10-11T10:28:23.117Z,16.03
2022-10-11T10:31:03.820Z,12.43
2022-10-11T10:33:36.366Z,13.47
2022-10-11T10:36:06.564Z,13.27
2022-10-11T10:39:06.828Z,12.03
2022-10-11T10:41:34.304Z,14.77
2022-10-11T10:44:01.817Z,16.10
2022-10-11T10:46:41.633Z,17.67
2022-10-11T10:49:51.985Z,13.93
2022-10-11T10:52:29.024Z,12.83
2022-10-11T10:55:02.816Z,13.83
2022-10-11T10:57:49.165Z,13.83
2022-10-11T11:00:19.303Z,14.83
2022-10-11T11:03:01.633Z,14.67
2022-10-11T11:05:38.124Z,15.50
2022-10-11T11:08:05.579Z,15.53
2022-10-11T11:10:37.268Z,17.63
2022-10-11T11:13:07.554Z,16.70
2022-10-11T11:15:37.912Z,16.23
2022-10-11T11:18:20.080Z,16.87
2022-10-11T11:20:50.841Z,15.30
2022-10-11T11:23:22.648Z,15.53
2022-10-11T11:25:56.223Z,17.33
2022-10-11T11:28:23.752Z,16.43
2022-10-11T11:31:11.032Z,20.07
2022-10-11T11:33:59.425Z,17.03
2022-10-11T11:36:35.591Z,18.10
2022-10-11T11:39:05.119Z,17.33
2022-10-11T11:41:42.053Z,16.13
2022-10-11T11:44:16.740Z,15.63
2022-10-11T11:46:47.459Z,17.40
2022-10-11T11:49:20.478Z,14.73
2022-10-11T11:51:47.972Z,12.47
2022-10-11T11:54:18.432Z,12.43
2022-10-11T11:56:45.921Z,11.50
2022-10-11T11:59:28.504Z,12.73
2022-10-11T12:02:14.907Z,10.10
2022-10-11T12:04:44.439Z,10.80
2022-10-11T12:07:17.075Z,11.23
2022-10-11T12:09:47.281Z,10.10
2022-10-11T12:12:34.915Z,10.73
2022-10-11T12:15:17.759Z,10.43
2022-10-11T12:17:57.682Z,9.30
2022-10-11T12:20:25.093Z,9.67
2022-10-11T12:22:52.509Z,8.70
2022-10-11T12:25:22.909Z,9.53
2022-10-11T12:27:51.684Z,8.80
2022-10-11T12:30:39.888Z,7.90
2022-10-11T12:33:29.708Z,8.10
2022-10-11T12:35:57.211Z,7.57
2022-10-11T12:38:30.763Z,7.47
2022-10-11T12:41:18.745Z,7.03
2022-10-11T12:43:49.314Z,7.10
2022-10-11T12:46:31.790Z,7.63
2022-10-11T12:49:17.744Z,7.00
2022-10-11T12:52:00.481Z,6.53
2022-10-11T12:54:37.371Z,6.93
2022-10-11T12:57:21.901Z,7.00
2022-10-11T12:59:49.940Z,6.83
2022-10-11T13:02:23.564Z,6.90
2022-10-11T13:04:51.140Z,7.40
2022-10-11T13:07:19.119Z,6.77
2022-10-11T13:09:49.095Z,7.63
2022-10-11T13:12:18.623Z,6.23
2022-10-11T13:14:47.503Z,6.67
2022-10-11T13:17:21.326Z,6.23
2022-10-11T13:19:52.393Z,5.93
2022-10-11T13:22:22.223Z,6.60
2022-10-11T13:24:49.903Z,6.27
2022-10-11T13:27:20.341Z,5.93
2022-10-11T13:30:00.400Z,6.30
2022-10-11T13:32:28.929Z,5.97
2022-10-11T13:34:58.455Z,6.63
2022-10-11T13:37:26.731Z,6.00
2022-10-11T13:39:55.049Z,5.93
2022-10-11T13:42:26.031Z,5.70
2022-10-11T13:44:53.633Z,6.20
2022-10-11T13:47:23.348Z,6.27
2022-10-11T13:50:02.090Z,6.00
2022-10-11T13:52:29.534Z,6.60
2022-10-11T13:54:58.074Z,6.83
2022-10-11T13:57:37.850Z,6.07
2022-10-11T14:00:09.264Z,5.57
2022-10-11T14:02:36.877Z,6.20
2022-10-11T14:05:04.517Z,5.80
2022-10-11T14:07:36.020Z,5.00
2022-10-11T14:10:04.522Z,6.20
2022-10-11T14:12:34.209Z,6.20
2022-10-11T14:15:02.224Z,6.30
2022-10-11T14:17:43.615Z,5.93
2022-10-11T14:20:17.094Z,6.47
2022-10-11T14:22:44.838Z,5.87
2022-10-11T14:25:13.314Z,6.30
2022-10-11T14:27:40.859Z,4.43
2022-10-11T14:30:25.218Z,5.57
2022-10-11T14:32:54.277Z,6.47
2022-10-11T14:35:24.047Z,7.93
2022-10-11T14:37:51.970Z,13.40
2022-10-11T14:40:21.076Z,11.33
2022-10-11T14:42:48.845Z,13.63
2022-10-11T14:45:16.833Z,7.37
2022-10-11T14:47:44.545Z,5.67
2022-10-11T14:50:23.472Z,14.57
2022-10-11T14:52:50.996Z,17.80
2022-10-11T14:55:18.398Z,14.73
2022-10-11T14:57:45.923Z,25.17
2022-10-11T15:00:23.819Z,18.57
2022-10-11T15:02:51.936Z,29.53
2022-10-11T15:05:20.329Z,30.87
2022-10-11T15:07:48.474Z,7.60
2022-10-11T15:10:18.696Z,6.73
2022-10-11T15:12:46.766Z,38.77
2022-10-11T15:15:16.881Z,24.40
2022-10-11T15:17:44.601Z,29.87
2022-10-11T15:20:17.814Z,24.93
2022-10-11T15:22:45.420Z,21.87
2022-10-11T15:25:12.937Z,27.33
2022-10-11T15:27:40.440Z,24.70
2022-10-11T15:30:15.091Z,19.53
2022-10-11T15:32:42.577Z,15.57
2022-10-11T15:35:10.368Z,19.90
2022-10-11T15:37:38.474Z,13.30
2022-10-11T15:40:23.331Z,18.73
2022-10-11T15:42:51.098Z,12.87
2022-10-11T15:45:19.393Z,14.20
2022-10-11T15:47:47.208Z,12.70
2022-10-11T15:50:19.392Z,9.20
2022-10-11T15:52:46.876Z,7.10
2022-10-11T15:55:14.378Z,9.60
2022-10-11T15:57:41.943Z,6.83
2022-10-11T16:00:09.671Z,7.93
2022-10-11T16:02:37.149Z,6.33
2022-10-11T16:05:04.713Z,6.07
2022-10-11T16:07:32.248Z,6.83
2022-10-11T16:09:59.710Z,6.93
2022-10-11T16:12:27.190Z,8.07
2022-10-11T16:14:54.641Z,6.90
2022-10-11T16:17:22.498Z,6.87
2022-10-11T16:19:49.961Z,5.83
2022-10-11T16:22:17.479Z,7.17
2022-10-11T16:24:44.954Z,6.43
2022-10-11T16:27:16.451Z,5.80
2022-10-11T16:29:50.207Z,6.10
2022-10-11T16:32:17.737Z,6.30
2022-10-11T16:34:45.198Z,5.77
2022-10-11T16:37:12.856Z,6.50
2022-10-11T16:39:40.615Z,6.50
2022-10-11T16:42:08.367Z,7.23
2022-10-11T16:44:35.938Z,6.70
2022-10-11T16:47:03.614Z,6.43
2022-10-11T16:49:31.122Z,6.97
2022-10-11T16:51:59.930Z,6.43
2022-10-11T16:54:27.925Z,6.17
2022-10-11T16:56:55.646Z,7.00
2022-10-11T17:02:08.397Z,6.07
2022-10-11T17:04:35.911Z,6.47
2022-10-11T17:07:03.454Z,6.70
2022-10-11T17:09:30.947Z,7.27
2022-10-11T17:11:58.623Z,6.57
2022-10-11T17:14:26.100Z,6.83
2022-10-11T17:16:53.786Z,7.47
2022-10-11T17:19:21.276Z,6.47
2022-10-11T17:21:48.723Z,7.27
2022-10-11T17:24:16.187Z,6.70
2022-10-11T17:26:43.675Z,6.20
2022-10-11T17:29:17.933Z,6.80
2022-10-11T17:31:49.260Z,7.57
2022-10-11T17:34:17.513Z,8.33
2022-10-11T17:36:45.085Z,8.50
2022-10-11T17:39:13.779Z,7.90
2022-10-11T17:41:41.912Z,6.93
2022-10-11T17:44:09.614Z,6.93
2022-10-11T17:46:37.446Z,7.00
2022-10-11T17:49:06.608Z,7.87
2022-10-11T17:51:34.806Z,10.87
2022-10-11T17:54:02.456Z,12.77
2022-10-11T17:56:33.813Z,16.33
2022-10-11T17:59:05.045Z,11.83
2022-10-11T18:01:32.603Z,11.53
2022-10-11T18:04:02.493Z,12.63
2022-10-11T18:06:31.099Z,13.70
2022-10-11T18:09:00.848Z,13.23
2022-10-11T18:11:28.892Z,12.67
2022-10-11T18:13:58.997Z,12.40
2022-10-11T18:16:27.302Z,13.00
2022-10-11T18:18:54.920Z,12.73
2022-10-11T18:21:22.435Z,11.20
2022-10-11T18:23:50.052Z,11.87
2022-10-11T18:26:25.503Z,13.00
2022-10-11T18:28:57.003Z,12.70
2022-10-11T18:31:26.560Z,13.17
2022-10-11T18:33:54.404Z,12.87
2022-10-11T18:36:23.199Z,11.00
2022-10-11T18:38:53.887Z,11.27
2022-10-11T18:41:22.252Z,12.50
2022-10-11T18:43:50.830Z,12.83
2022-10-11T18:46:18.815Z,11.23
2022-10-11T18:48:47.478Z,12.47
2022-10-11T18:51:19.039Z,11.00
2022-10-11T18:53:47.368Z,13.00
2022-10-11T18:56:16.036Z,12.97
2022-10-11T18:58:44.016Z,13.27
2022-10-11T19:01:13.418Z,11.87
2022-10-11T19:03:40.942Z,12.10
2022-10-11T19:06:10.534Z,10.57
2022-10-11T19:08:38.081Z,10.50
2022-10-11T19:11:06.888Z,10.73
2022-10-11T19:13:34.873Z,11.53
2022-10-11T19:16:15.704Z,11.13
2022-10-11T19:18:44.537Z,10.67
2022-10-11T19:21:13.358Z,12.03
2022-10-11T19:23:42.356Z,12.57
2022-10-11T19:26:14.035Z,10.33
2022-10-11T19:28:41.997Z,11.77
2022-10-11T19:31:11.086Z,11.30
2022-10-11T19:33:38.721Z,12.63
2022-10-11T19:36:07.272Z,11.30
2022-10-11T19:38:35.571Z,11.50
2022-10-11T19:41:04.198Z,12.47
2022-10-11T19:43:32.384Z,15.23
2022-10-11T19:46:09.932Z,14.27
2022-10-11T19:48:38.768Z,11.33
2022-10-11T19:51:09.970Z,11.77
2022-10-11T19:53:37.774Z,12.03
2022-10-11T19:56:08.953Z,12.80
2022-10-11T19:58:36.531Z,13.33
2022-10-11T20:01:11.842Z,13.00
2022-10-11T20:03:39.911Z,13.20
2022-10-11T20:06:08.079Z,13.57
2022-10-11T20:08:36.663Z,13.27
2022-10-11T20:11:05.750Z,15.00
2022-10-11T20:13:35.027Z,15.53
2022-10-11T20:16:07.890Z,15.70
2022-10-11T20:18:35.923Z,15.07
2022-10-11T20:21:04.843Z,14.97
2022-10-11T20:23:32.796Z,15.43
2022-10-11T20:26:05.047Z,14.60
2022-10-11T20:28:33.257Z,14.97
2022-10-11T20:31:01.785Z,14.87
2022-10-11T20:33:30.376Z,14.20
2022-10-11T20:36:08.152Z,15.17
2022-10-11T20:38:36.394Z,14.47
2022-10-11T20:41:10.744Z,15.30
2022-10-11T20:43:38.348Z,15.53
2022-10-11T20:46:10.930Z,14.97
2022-10-11T20:48:39.391Z,15.27
2022-10-11T20:51:07.805Z,20.67
2022-10-11T20:53:35.702Z,18.30
2022-10-11T20:56:03.615Z,15.67
2022-10-11T20:58:31.235Z,14.67
2022-10-11T21:00:58.793Z,15.47
2022-10-11T21:03:26.530Z,14.17
2022-10-11T21:06:00.248Z,15.10
2022-10-11T21:10:55.834Z,13.60
2022-10-11T21:13:23.675Z,13.33
2022-10-11T21:15:51.150Z,13.13
2022-10-11T21:18:18.778Z,13.13
2022-10-11T21:20:46.611Z,13.00
2022-10-11T21:23:14.254Z,13.63
2022-10-11T21:25:41.690Z,12.63
2022-10-11T21:28:09.307Z,13.33
2022-10-11T21:30:36.797Z,14.57
2022-10-11T21:33:04.480Z,14.07
2022-10-11T21:35:31.948Z,12.47
2022-10-11T21:37:59.669Z,12.17
2022-10-11T21:40:27.215Z,13.50
2022-10-11T21:42:54.791Z,13.53
2022-10-11T21:45:22.398Z,12.90
2022-10-11T21:47:49.924Z,13.37
2022-10-11T21:50:17.441Z,12.83
2022-10-11T21:52:44.889Z,13.37
2022-10-11T21:55:12.351Z,12.57
2022-10-11T21:57:41.722Z,13.10
2022-10-11T22:00:09.853Z,13.57
2022-10-11T22:02:37.587Z,13.97
2022-10-11T22:05:05.488Z,13.30
2022-10-11T22:07:32.922Z,14.63
2022-10-11T22:10:00.450Z,13.77
2022-10-11T22:12:27.931Z,14.00
2022-10-11T22:14:55.381Z,14.80
2022-10-11T22:17:22.804Z,14.17
2022-10-11T22:19:50.254Z,14.33
2022-10-11T22:22:17.701Z,12.57
2022-10-11T22:24:45.180Z,12.77
2022-10-11T22:27:12.627Z,13.27
2022-10-11T22:29:40.046Z,13.33
2022-10-11T22:32:07.503Z,13.00
2022-10-11T22:34:35.012Z,13.23
2022-10-11T22:37:02.502Z,12.80
2022-10-11T22:39:30.099Z,12.67
2022-10-11T22:42:01.080Z,13.00
2022-10-11T22:44:29.139Z,12.77
2022-10-11T22:46:56.612Z,12.57
2022-10-11T22:49:24.134Z,13.37
2022-10-11T22:51:51.582Z,13.17
2022-10-11T22:54:19.073Z,13.50
2022-10-11T22:56:46.612Z,13.40
2022-10-11T22:59:14.080Z,12.07
2022-10-11T23:01:41.550Z,13.57
2022-10-11T23:04:09.031Z,11.97
2022-10-11T23:06:36.503Z,12.90
2022-10-11T23:09:04.032Z,12.83
2022-10-11T23:11:31.611Z,12.83
2022-10-11T23:13:59.074Z,12.80
2022-10-11T23:16:26.549Z,11.97
2022-10-11T23:18:54.501Z,12.83
2022-10-11T23:21:22.199Z,12.63
2022-10-11T23:23:52.356Z,12.20
2022-10-11T23:26:20.133Z,11.10
2022-10-11T23:28:48.067Z,9.40
2022-10-11T23:31:17.105Z,11.27
2022-10-11T23:33:45.095Z,11.23
2022-10-11T23:36:20.218Z,10.97
2022-10-11T23:38:54.876Z,10.17
2022-10-11T23:41:23.115Z,10.50
2022-10-11T23:43:50.540Z,10.17
2022-10-11T23:46:18.041Z,10.53
2022-10-11T23:48:45.653Z,10.43
2022-10-11T23:51:14.681Z,10.43
2022-10-11T23:53:42.132Z,11.10
2022-10-11T23:56:10.402Z,10.10
2022-10-11T23:58:37.952Z,9.90
